createdAt,value
2018-10-12T00:04:36.110Z,45.3
2018-10-12T00:15:21.689Z,56.5
2018-10-12T00:26:07.234Z,43.4
2018-10-12T00:36:20.724Z,37.7
2018-10-12T00:46:35.164Z,35.9
2018-10-12T00:56:48.407Z,38.5
2018-10-12T01:07:02.603Z,48.6
2018-10-12T01:17:16.632Z,41.3
2018-10-12T01:27:31.909Z,39.2
2018-10-12T01:37:46.128Z,43.5
2018-10-12T01:48:00.540Z,37.5
2018-10-12T01:58:45.772Z,34.2
2018-10-12T02:08:59.402Z,33.8
2018-10-12T02:19:11.489Z,34.0
2018-10-12T02:29:25.762Z,35.3
2018-10-12T02:39:40.026Z,36.9
2018-10-12T02:49:52.511Z,35.4
2018-10-12T03:00:06.677Z,33.7
2018-10-12T03:10:51.656Z,45.5
2018-10-12T03:21:06.906Z,34.3
2018-10-12T03:31:20.922Z,30.9
2018-10-12T03:41:34.882Z,31.3
2018-10-12T03:52:20.178Z,40.6
2018-10-12T04:13:41.047Z,32.1
2018-10-12T04:23:57.439Z,34.8
2018-10-12T04:34:19.955Z,27.7
2018-10-12T04:44:34.111Z,31.2
2018-10-12T04:54:48.463Z,32.6
2018-10-12T05:05:02.276Z,32.9
2018-10-12T05:15:47.456Z,31.0
2018-10-12T05:26:32.244Z,39.4
2018-10-12T05:37:20.111Z,32.0
2018-10-12T05:47:33.675Z,29.8
2018-10-12T05:57:47.810Z,28.8
2018-10-12T06:08:02.180Z,31.0
2018-10-12T06:18:16.517Z,32.9
2018-10-12T06:28:31.304Z,31.3
2018-10-12T06:39:44.084Z,29.5
2018-10-12T06:52:09.092Z,31.0
2018-10-12T07:04:02.497Z,29.7
2018-10-12T07:25:55.659Z,32.3
2018-10-12T07:49:13.881Z,30.5
2018-10-12T08:07:14.037Z,27.7
2018-10-12T08:17:30.091Z,29.6
2018-10-12T08:29:36.773Z,28.2
2018-10-12T08:41:40.571Z,28.2
2018-10-12T08:53:32.856Z,25.0
2018-10-12T09:06:54.881Z,24.4
2018-10-12T09:17:28.077Z,24.5
2018-10-12T09:42:02.098Z,24.6
2018-10-12T09:53:34.694Z,28.9
2018-10-12T10:18:40.446Z,25.5
2018-10-12T10:32:07.636Z,25.7
2018-10-12T10:46:42.538Z,22.7
2018-10-12T10:58:33.256Z,22.1
2018-10-12T11:10:39.340Z,22.3
2018-10-12T11:22:38.545Z,22.4
2018-10-12T11:35:44.120Z,21.4
2018-10-12T11:57:29.499Z,21.8
2018-10-12T12:09:19.322Z,24.2
2018-10-12T12:24:41.988Z,24.3
2018-10-12T13:32:17.615Z,24.1
2018-10-12T13:42:33.916Z,26.1
2018-10-12T13:53:38.304Z,24.4
2018-10-12T14:04:55.264Z,24.9
2018-10-12T15:06:04.019Z,24.4
2018-10-12T15:35:16.518Z,25.3
2018-10-12T16:09:36.501Z,29.5
2018-10-12T16:19:52.311Z,26.9
2018-10-12T21:00:17.875Z,27.6
2018-10-12T21:11:36.881Z,30.2
2018-10-12T21:24:59.998Z,27.2
2018-10-12T21:37:10.261Z,26.6
2018-10-12T21:47:24.137Z,27.3
2018-10-12T22:11:16.017Z,28.9
2018-10-12T22:23:47.915Z,28.2
2018-10-12T22:36:06.959Z,29.6
2018-10-12T22:47:53.364Z,28.3
2018-10-12T22:58:05.194Z,29.5
2018-10-12T23:10:54.922Z,28.5
2018-10-12T23:21:06.678Z,31.8
2018-10-12T23:42:32.151Z,29.9
2018-10-12T23:52:44.349Z,37.7
